Trinity, Alabama
Current Conditions -  °F | °C
As of 3:53 PM on Wednesday 28 Jan 2015 (Local Time) from KDCU Reporting Station
Clear Clear  
Wind Chill: 52°   Ceiling: Unl
Heat Index: 52°   Visibility: 10mi
Dew Point: 27°   Wind: 5mph
Humidity: 38%   Direction: 120°ESE
Pressure: 30.23"   Gusts: NA
Location:  34.61°N, 87.09°W
Report Text: KDCU 282153Z AUTO 12004KT 10SM CLR 11/M03 A3023 RMK AO2 SLP239 T01111028
Loading
Personal Weather Stations






























Interactive Weather Map New forecast layout! Learn more

10-Day Weather Forecast

Advertisements
Track Severe Weather on mobile